sensor_id;sensor_type;location;lat;lon;timestamp;temperature;humidity
54485;DHT22;45006;56.958;24.166;2023-02-03T00:01:56;23.00;84.50
54485;DHT22;45006;56.958;24.166;2023-02-03T00:04:23;23.00;84.70
54485;DHT22;45006;56.958;24.166;2023-02-03T00:06:50;23.00;84.60
54485;DHT22;45006;56.958;24.166;2023-02-03T00:09:17;23.00;84.50
54485;DHT22;45006;56.958;24.166;2023-02-03T00:11:45;23.00;84.60
54485;DHT22;45006;56.958;24.166;2023-02-03T00:14:12;23.00;84.40
54485;DHT22;45006;56.958;24.166;2023-02-03T00:16:39;23.00;84.70
54485;DHT22;45006;56.958;24.166;2023-02-03T00:19:06;23.00;84.90
54485;DHT22;45006;56.958;24.166;2023-02-03T00:21:32;23.00;85.00
54485;DHT22;45006;56.958;24.166;2023-02-03T00:23:59;23.00;84.70
54485;DHT22;45006;56.958;24.166;2023-02-03T00:26:26;23.00;84.90
54485;DHT22;45006;56.958;24.166;2023-02-03T00:28:54;23.00;84.90
54485;DHT22;45006;56.958;24.166;2023-02-03T00:31:22;23.00;85.00
54485;DHT22;45006;56.958;24.166;2023-02-03T00:33:54;23.00;84.90
54485;DHT22;45006;56.958;24.166;2023-02-03T00:36:23;23.00;84.90
54485;DHT22;45006;56.958;24.166;2023-02-03T00:38:50;23.00;84.60
54485;DHT22;45006;56.958;24.166;2023-02-03T00:41:19;23.00;84.50
54485;DHT22;45006;56.958;24.166;2023-02-03T00:43:47;23.00;84.70
54485;DHT22;45006;56.958;24.166;2023-02-03T00:46:14;23.00;84.40
54485;DHT22;45006;56.958;24.166;2023-02-03T00:48:41;23.00;84.40
54485;DHT22;45006;56.958;24.166;2023-02-03T00:51:08;23.00;84.20
54485;DHT22;45006;56.958;24.166;2023-02-03T00:53:35;23.00;84.30
54485;DHT22;45006;56.958;24.166;2023-02-03T00:56:01;23.00;84.30
54485;DHT22;45006;56.958;24.166;2023-02-03T00:58:28;23.00;84.20
54485;DHT22;45006;56.958;24.166;2023-02-03T01:00:55;23.00;84.50
54485;DHT22;45006;56.958;24.166;2023-02-03T01:03:22;23.10;84.70
54485;DHT22;45006;56.958;24.166;2023-02-03T01:05:50;23.10;84.70
54485;DHT22;45006;56.958;24.166;2023-02-03T01:08:16;23.00;84.80
54485;DHT22;45006;56.958;24.166;2023-02-03T01:10:43;23.00;84.70
54485;DHT22;45006;56.958;24.166;2023-02-03T01:13:10;23.10;84.80
54485;DHT22;45006;56.958;24.166;2023-02-03T01:15:37;23.10;84.70
54485;DHT22;45006;56.958;24.166;2023-02-03T01:18:04;23.00;84.60
54485;DHT22;45006;56.958;24.166;2023-02-03T01:20:31;23.10;84.50
54485;DHT22;45006;56.958;24.166;2023-02-03T01:22:57;23.10;84.60
54485;DHT22;45006;56.958;24.166;2023-02-03T01:25:24;23.10;84.50
54485;DHT22;45006;56.958;24.166;2023-02-03T01:27:51;23.00;84.50
54485;DHT22;45006;56.958;24.166;2023-02-03T01:30:18;23.10;84.50
54485;DHT22;45006;56.958;24.166;2023-02-03T01:32:45;23.10;84.50
54485;DHT22;45006;56.958;24.166;2023-02-03T01:35:12;23.10;84.50
54485;DHT22;45006;56.958;24.166;2023-02-03T01:37:38;23.10;84.50
54485;DHT22;45006;56.958;24.166;2023-02-03T01:40:06;23.00;84.30
54485;DHT22;45006;56.958;24.166;2023-02-03T01:42:33;23.00;84.30
54485;DHT22;45006;56.958;24.166;2023-02-03T01:45:00;23.00;84.40
54485;DHT22;45006;56.958;24.166;2023-02-03T01:47:33;23.00;84.30
54485;DHT22;45006;56.958;24.166;2023-02-03T01:50:04;23.00;83.80
54485;DHT22;45006;56.958;24.166;2023-02-03T01:52:33;23.10;83.70
54485;DHT22;45006;56.958;24.166;2023-02-03T01:55:02;23.00;83.60
54485;DHT22;45006;56.958;24.166;2023-02-03T01:57:42;23.00;83.80
54485;DHT22;45006;56.958;24.166;2023-02-03T02:00:12;23.00;83.70
54485;DHT22;45006;56.958;24.166;2023-02-03T02:02:42;23.00;83.70
54485;DHT22;45006;56.958;24.166;2023-02-03T02:08:12;23.10;83.80
54485;DHT22;45006;56.958;24.166;2023-02-03T02:10:40;23.10;83.80
54485;DHT22;45006;56.958;24.166;2023-02-03T02:13:07;23.10;83.80
54485;DHT22;45006;56.958;24.166;2023-02-03T02:15:51;23.00;83.40
54485;DHT22;45006;56.958;24.166;2023-02-03T02:35:28;23.00;83.30
54485;DHT22;45006;56.958;24.166;2023-02-03T02:38:03;23.10;83.40
54485;DHT22;45006;56.958;24.166;2023-02-03T02:40:55;23.00;83.20
54485;DHT22;45006;56.958;24.166;2023-02-03T02:43:42;23.00;83.40
54485;DHT22;45006;56.958;24.166;2023-02-03T02:46:26;23.00;83.40
54485;DHT22;45006;56.958;24.166;2023-02-03T02:48:58;23.00;83.40
54485;DHT22;45006;56.958;24.166;2023-02-03T02:51:28;23.00;83.30
54485;DHT22;45006;56.958;24.166;2023-02-03T02:54:02;23.00;83.30
54485;DHT22;45006;56.958;24.166;2023-02-03T02:56:32;23.00;83.30
54485;DHT22;45006;56.958;24.166;2023-02-03T02:59:01;23.00;83.00
54485;DHT22;45006;56.958;24.166;2023-02-03T03:01:30;23.00;83.20
54485;DHT22;45006;56.958;24.166;2023-02-03T03:04:01;23.00;82.90
54485;DHT22;45006;56.958;24.166;2023-02-03T03:06:36;23.00;83.00
54485;DHT22;45006;56.958;24.166;2023-02-03T03:09:14;23.00;83.00
54485;DHT22;45006;56.958;24.166;2023-02-03T03:11:46;23.00;83.00
54485;DHT22;45006;56.958;24.166;2023-02-03T03:14:17;23.00;82.90
54485;DHT22;45006;56.958;24.166;2023-02-03T03:16:58;23.00;82.90
54485;DHT22;45006;56.958;24.166;2023-02-03T03:19:41;23.00;83.00
54485;DHT22;45006;56.958;24.166;2023-02-03T03:22:10;23.00;82.90
54485;DHT22;45006;56.958;24.166;2023-02-03T03:24:46;23.00;82.70
54485;DHT22;45006;56.958;24.166;2023-02-03T03:27:19;23.00;83.00
54485;DHT22;45006;56.958;24.166;2023-02-03T03:30:00;23.00;83.00
54485;DHT22;45006;56.958;24.166;2023-02-03T03:32:28;23.00;82.90
54485;DHT22;45006;56.958;24.166;2023-02-03T03:34:59;23.00;83.00
54485;DHT22;45006;56.958;24.166;2023-02-03T03:37:36;23.00;83.10
54485;DHT22;45006;56.958;24.166;2023-02-03T03:40:11;23.00;83.50
54485;DHT22;45006;56.958;24.166;2023-02-03T03:42:58;23.00;83.10
54485;DHT22;45006;56.958;24.166;2023-02-03T03:45:41;23.10;83.20
54485;DHT22;45006;56.958;24.166;2023-02-03T03:50:59;23.00;83.20
54485;DHT22;45006;56.958;24.166;2023-02-03T03:53:29;23.10;83.30
54485;DHT22;45006;56.958;24.166;2023-02-03T03:56:00;23.00;83.20
54485;DHT22;45006;56.958;24.166;2023-02-03T03:58:30;23.10;83.20
54485;DHT22;45006;56.958;24.166;2023-02-03T04:01:01;23.00;83.20
54485;DHT22;45006;56.958;24.166;2023-02-03T04:03:51;23.10;83.00
54485;DHT22;45006;56.958;24.166;2023-02-03T04:06:20;23.10;83.00
54485;DHT22;45006;56.958;24.166;2023-02-03T04:08:46;23.10;83.10
54485;DHT22;45006;56.958;24.166;2023-02-03T04:11:13;23.00;82.90
54485;DHT22;45006;56.958;24.166;2023-02-03T04:14:00;23.00;83.00
54485;DHT22;45006;56.958;24.166;2023-02-03T04:16:27;23.10;83.00
54485;DHT22;45006;56.958;24.166;2023-02-03T04:18:54;23.10;83.00
54485;DHT22;45006;56.958;24.166;2023-02-03T04:21:21;23.00;82.90
54485;DHT22;45006;56.958;24.166;2023-02-03T04:23:47;23.10;83.00
54485;DHT22;45006;56.958;24.166;2023-02-03T04:26:16;23.10;82.90
54485;DHT22;45006;56.958;24.166;2023-02-03T04:28:43;23.10;82.80
54485;DHT22;45006;56.958;24.166;2023-02-03T04:31:10;23.00;82.80
54485;DHT22;45006;56.958;24.166;2023-02-03T04:33:37;23.00;82.90
54485;DHT22;45006;56.958;24.166;2023-02-03T04:36:04;23.00;82.90
54485;DHT22;45006;56.958;24.166;2023-02-03T04:38:31;23.00;82.90
54485;DHT22;45006;56.958;24.166;2023-02-03T04:40:58;23.10;83.00
54485;DHT22;45006;56.958;24.166;2023-02-03T04:43:25;23.10;83.10
54485;DHT22;45006;56.958;24.166;2023-02-03T04:45:52;23.10;83.00
54485;DHT22;45006;56.958;24.166;2023-02-03T04:48:19;23.00;82.80
54485;DHT22;45006;56.958;24.166;2023-02-03T04:50:46;23.10;82.80
54485;DHT22;45006;56.958;24.166;2023-02-03T04:53:13;23.00;82.70
54485;DHT22;45006;56.958;24.166;2023-02-03T04:55:45;23.10;82.70
54485;DHT22;45006;56.958;24.166;2023-02-03T04:58:12;23.10;82.90
54485;DHT22;45006;56.958;24.166;2023-02-03T05:00:40;23.00;82.90
54485;DHT22;45006;56.958;24.166;2023-02-03T05:03:07;23.00;82.70
54485;DHT22;45006;56.958;24.166;2023-02-03T05:05:34;23.10;82.80
54485;DHT22;45006;56.958;24.166;2023-02-03T05:08:01;23.10;82.70
54485;DHT22;45006;56.958;24.166;2023-02-03T05:10:27;23.00;82.60
54485;DHT22;45006;56.958;24.166;2023-02-03T05:12:55;23.00;82.60
54485;DHT22;45006;56.958;24.166;2023-02-03T05:15:21;23.10;83.10
54485;DHT22;45006;56.958;24.166;2023-02-03T05:17:51;23.00;82.50
54485;DHT22;45006;56.958;24.166;2023-02-03T05:20:18;23.00;82.90
54485;DHT22;45006;56.958;24.166;2023-02-03T05:22:45;23.00;83.00
54485;DHT22;45006;56.958;24.166;2023-02-03T05:25:12;23.00;83.10
54485;DHT22;45006;56.958;24.166;2023-02-03T05:27:40;23.10;82.80
54485;DHT22;45006;56.958;24.166;2023-02-03T05:30:08;23.10;83.00
54485;DHT22;45006;56.958;24.166;2023-02-03T05:32:35;23.10;83.20
54485;DHT22;45006;56.958;24.166;2023-02-03T05:35:02;23.00;83.10
54485;DHT22;45006;56.958;24.166;2023-02-03T05:37:29;23.00;83.20
54485;DHT22;45006;56.958;24.166;2023-02-03T05:39:56;23.10;83.40
54485;DHT22;45006;56.958;24.166;2023-02-03T05:42:49;23.00;83.30
54485;DHT22;45006;56.958;24.166;2023-02-03T05:45:16;23.10;83.40
54485;DHT22;45006;56.958;24.166;2023-02-03T05:47:43;23.10;83.60
54485;DHT22;45006;56.958;24.166;2023-02-03T05:50:10;23.10;83.80
54485;DHT22;45006;56.958;24.166;2023-02-03T05:52:36;23.10;83.80
54485;DHT22;45006;56.958;24.166;2023-02-03T05:55:03;23.10;83.70
54485;DHT22;45006;56.958;24.166;2023-02-03T05:57:30;23.10;83.80
54485;DHT22;45006;56.958;24.166;2023-02-03T05:59:58;23.10;83.80
54485;DHT22;45006;56.958;24.166;2023-02-03T06:02:24;23.10;83.80
54485;DHT22;45006;56.958;24.166;2023-02-03T06:04:51;23.10;83.80
54485;DHT22;45006;56.958;24.166;2023-02-03T06:07:18;23.10;84.00
54485;DHT22;45006;56.958;24.166;2023-02-03T06:09:45;23.10;84.10
54485;DHT22;45006;56.958;24.166;2023-02-03T06:12:12;23.10;84.20
54485;DHT22;45006;56.958;24.166;2023-02-03T06:14:40;23.10;84.10
54485;DHT22;45006;56.958;24.166;2023-02-03T06:17:07;23.10;84.10
54485;DHT22;45006;56.958;24.166;2023-02-03T06:19:34;23.10;84.10
54485;DHT22;45006;56.958;24.166;2023-02-03T06:22:00;23.10;84.20
54485;DHT22;45006;56.958;24.166;2023-02-03T06:24:27;23.10;84.20
54485;DHT22;45006;56.958;24.166;2023-02-03T06:26:54;23.10;84.30
54485;DHT22;45006;56.958;24.166;2023-02-03T06:29:21;23.10;84.30
54485;DHT22;45006;56.958;24.166;2023-02-03T06:31:47;23.10;84.50
54485;DHT22;45006;56.958;24.166;2023-02-03T06:34:14;23.10;84.50
54485;DHT22;45006;56.958;24.166;2023-02-03T06:36:41;23.10;84.50
54485;DHT22;45006;56.958;24.166;2023-02-03T06:39:08;23.10;84.50
54485;DHT22;45006;56.958;24.166;2023-02-03T06:41:35;23.10;84.70
54485;DHT22;45006;56.958;24.166;2023-02-03T06:44:02;23.10;84.70
54485;DHT22;45006;56.958;24.166;2023-02-03T06:46:29;23.10;84.90
54485;DHT22;45006;56.958;24.166;2023-02-03T06:48:56;23.10;84.90
54485;DHT22;45006;56.958;24.166;2023-02-03T06:51:23;23.10;84.90
54485;DHT22;45006;56.958;24.166;2023-02-03T06:53:50;23.10;84.90
54485;DHT22;45006;56.958;24.166;2023-02-03T06:56:17;23.10;84.90
54485;DHT22;45006;56.958;24.166;2023-02-03T06:58:44;23.10;84.90
54485;DHT22;45006;56.958;24.166;2023-02-03T07:01:11;23.10;85.00
54485;DHT22;45006;56.958;24.166;2023-02-03T07:03:37;23.10;85.00
54485;DHT22;45006;56.958;24.166;2023-02-03T07:06:05;23.20;85.10
54485;DHT22;45006;56.958;24.166;2023-02-03T07:08:31;23.10;85.10
54485;DHT22;45006;56.958;24.166;2023-02-03T07:10:58;23.10;85.10
54485;DHT22;45006;56.958;24.166;2023-02-03T07:13:25;23.10;85.20
54485;DHT22;45006;56.958;24.166;2023-02-03T07:15:52;23.10;85.20
54485;DHT22;45006;56.958;24.166;2023-02-03T07:18:19;23.10;85.20
54485;DHT22;45006;56.958;24.166;2023-02-03T07:21:10;23.10;85.30
54485;DHT22;45006;56.958;24.166;2023-02-03T07:23:37;23.20;85.40
54485;DHT22;45006;56.958;24.166;2023-02-03T07:26:05;23.10;85.30
54485;DHT22;45006;56.958;24.166;2023-02-03T07:28:33;23.10;85.50
54485;DHT22;45006;56.958;24.166;2023-02-03T07:31:01;23.10;85.70
54485;DHT22;45006;56.958;24.166;2023-02-03T07:33:30;23.10;85.70
54485;DHT22;45006;56.958;24.166;2023-02-03T07:35:58;23.10;85.60
54485;DHT22;45006;56.958;24.166;2023-02-03T07:38:26;23.20;85.70
54485;DHT22;45006;56.958;24.166;2023-02-03T07:40:54;23.10;85.80
54485;DHT22;45006;56.958;24.166;2023-02-03T07:43:22;23.20;85.90
54485;DHT22;45006;56.958;24.166;2023-02-03T07:45:49;23.20;85.90
54485;DHT22;45006;56.958;24.166;2023-02-03T07:48:16;23.10;85.80
54485;DHT22;45006;56.958;24.166;2023-02-03T07:50:42;23.20;85.90
54485;DHT22;45006;56.958;24.166;2023-02-03T07:53:11;23.20;85.90
54485;DHT22;45006;56.958;24.166;2023-02-03T07:55:38;23.10;85.90
54485;DHT22;45006;56.958;24.166;2023-02-03T07:58:06;23.20;86.00
54485;DHT22;45006;56.958;24.166;2023-02-03T08:00:33;23.10;85.90
54485;DHT22;45006;56.958;24.166;2023-02-03T08:03:00;23.20;86.10
54485;DHT22;45006;56.958;24.166;2023-02-03T08:05:27;23.20;86.20
54485;DHT22;45006;56.958;24.166;2023-02-03T08:07:55;23.20;86.30
54485;DHT22;45006;56.958;24.166;2023-02-03T08:10:22;23.20;86.40
54485;DHT22;45006;56.958;24.166;2023-02-03T08:12:52;23.20;86.40
54485;DHT22;45006;56.958;24.166;2023-02-03T08:15:19;23.20;86.40
54485;DHT22;45006;56.958;24.166;2023-02-03T08:17:48;23.20;86.50
54485;DHT22;45006;56.958;24.166;2023-02-03T08:20:15;23.20;86.60
54485;DHT22;45006;56.958;24.166;2023-02-03T08:22:42;23.20;86.20
54485;DHT22;45006;56.958;24.166;2023-02-03T08:25:09;23.20;81.10
54485;DHT22;45006;56.958;24.166;2023-02-03T08:27:37;23.20;78.90
54485;DHT22;45006;56.958;24.166;2023-02-03T08:30:05;23.20;77.40
54485;DHT22;45006;56.958;24.166;2023-02-03T08:32:33;23.20;76.80
54485;DHT22;45006;56.958;24.166;2023-02-03T08:35:00;23.10;77.90
54485;DHT22;45006;56.958;24.166;2023-02-03T08:37:27;23.10;78.10
54485;DHT22;45006;56.958;24.166;2023-02-03T08:39:58;23.10;78.10
54485;DHT22;45006;56.958;24.166;2023-02-03T08:42:25;23.10;78.10
54485;DHT22;45006;56.958;24.166;2023-02-03T08:44:52;23.10;78.30
54485;DHT22;45006;56.958;24.166;2023-02-03T08:47:19;23.10;78.30
54485;DHT22;45006;56.958;24.166;2023-02-03T08:49:46;23.10;78.30
54485;DHT22;45006;56.958;24.166;2023-02-03T08:52:13;23.10;78.30
54485;DHT22;45006;56.958;24.166;2023-02-03T08:54:43;23.10;78.00
54485;DHT22;45006;56.958;24.166;2023-02-03T08:57:10;23.10;77.90
54485;DHT22;45006;56.958;24.166;2023-02-03T08:59:38;23.10;77.90
54485;DHT22;45006;56.958;24.166;2023-02-03T09:02:08;23.10;78.00
54485;DHT22;45006;56.958;24.166;2023-02-03T09:04:37;23.10;78.10
54485;DHT22;45006;56.958;24.166;2023-02-03T09:07:04;23.10;78.10
54485;DHT22;45006;56.958;24.166;2023-02-03T09:09:31;23.10;78.10
54485;DHT22;45006;56.958;24.166;2023-02-03T09:11:58;23.10;78.10
54485;DHT22;45006;56.958;24.166;2023-02-03T09:14:28;23.10;78.00
54485;DHT22;45006;56.958;24.166;2023-02-03T09:16:56;23.10;77.80
54485;DHT22;45006;56.958;24.166;2023-02-03T09:19:23;23.10;77.60
54485;DHT22;45006;56.958;24.166;2023-02-03T09:21:50;23.10;77.80
54485;DHT22;45006;56.958;24.166;2023-02-03T09:24:17;23.10;77.70
54485;DHT22;45006;56.958;24.166;2023-02-03T09:26:44;23.10;78.00
54485;DHT22;45006;56.958;24.166;2023-02-03T09:29:11;23.10;78.10
54485;DHT22;45006;56.958;24.166;2023-02-03T09:31:38;23.10;78.20
54485;DHT22;45006;56.958;24.166;2023-02-03T09:34:06;23.10;78.10
54485;DHT22;45006;56.958;24.166;2023-02-03T09:36:33;23.10;78.10
54485;DHT22;45006;56.958;24.166;2023-02-03T09:39:00;23.10;78.00
54485;DHT22;45006;56.958;24.166;2023-02-03T09:47:19;23.00;77.80
54485;DHT22;45006;56.958;24.166;2023-02-03T09:49:56;23.00;78.00
54485;DHT22;45006;56.958;24.166;2023-02-03T09:52:33;23.00;78.00
54485;DHT22;45006;56.958;24.166;2023-02-03T09:58:11;23.00;77.80
54485;DHT22;45006;56.958;24.166;2023-02-03T10:03:36;23.00;77.60
54485;DHT22;45006;56.958;24.166;2023-02-03T10:06:35;23.00;76.40
54485;DHT22;45006;56.958;24.166;2023-02-03T10:15:14;23.00;76.90
54485;DHT22;45006;56.958;24.166;2023-02-03T10:17:53;23.00;77.10
54485;DHT22;45006;56.958;24.166;2023-02-03T10:21:01;23.00;77.00
54485;DHT22;45006;56.958;24.166;2023-02-03T10:23:38;23.00;77.30
54485;DHT22;45006;56.958;24.166;2023-02-03T10:26:15;23.00;77.30
54485;DHT22;45006;56.958;24.166;2023-02-03T10:29:19;23.00;77.20
54485;DHT22;45006;56.958;24.166;2023-02-03T10:31:46;23.00;77.30
54485;DHT22;45006;56.958;24.166;2023-02-03T10:34:15;23.00;77.20
54485;DHT22;45006;56.958;24.166;2023-02-03T10:36:55;23.00;78.00
54485;DHT22;45006;56.958;24.166;2023-02-03T10:39:40;23.00;78.60
54485;DHT22;45006;56.958;24.166;2023-02-03T10:42:10;23.00;80.60
54485;DHT22;45006;56.958;24.166;2023-02-03T10:45:09;23.00;80.60
54485;DHT22;45006;56.958;24.166;2023-02-03T10:47:40;23.00;81.30
54485;DHT22;45006;56.958;24.166;2023-02-03T10:50:29;23.00;81.30
54485;DHT22;45006;56.958;24.166;2023-02-03T10:55:46;23.00;82.10
54485;DHT22;45006;56.958;24.166;2023-02-03T10:58:17;23.00;82.40
54485;DHT22;45006;56.958;24.166;2023-02-03T11:00:53;23.00;83.10
54485;DHT22;45006;56.958;24.166;2023-02-03T11:03:25;23.00;83.60
54485;DHT22;45006;56.958;24.166;2023-02-03T11:06:14;23.00;84.00
54485;DHT22;45006;56.958;24.166;2023-02-03T11:08:44;23.00;84.40
54485;DHT22;45006;56.958;24.166;2023-02-03T12:47:06;23.10;81.90
54485;DHT22;45006;56.958;24.166;2023-02-03T12:49:46;23.10;81.00
54485;DHT22;45006;56.958;24.166;2023-02-03T16:08:54;22.80;82.40
54485;DHT22;45006;56.958;24.166;2023-02-03T16:11:25;22.80;82.70
54485;DHT22;45006;56.958;24.166;2023-02-03T16:13:53;22.80;82.60
54485;DHT22;45006;56.958;24.166;2023-02-03T16:16:32;22.80;82.30
54485;DHT22;45006;56.958;24.166;2023-02-03T16:19:02;22.80;82.00
54485;DHT22;45006;56.958;24.166;2023-02-03T16:21:57;22.80;81.60
54485;DHT22;45006;56.958;24.166;2023-02-03T16:29:56;22.80;81.70
54485;DHT22;45006;56.958;24.166;2023-02-03T16:35:57;22.80;81.40
54485;DHT22;45006;56.958;24.166;2023-02-03T16:38:47;22.80;81.60
54485;DHT22;45006;56.958;24.166;2023-02-03T16:41:32;22.80;81.50
54485;DHT22;45006;56.958;24.166;2023-02-03T16:44:18;22.80;82.00
54485;DHT22;45006;56.958;24.166;2023-02-03T16:47:24;22.80;81.40
54485;DHT22;45006;56.958;24.166;2023-02-03T16:50:12;22.80;81.00
54485;DHT22;45006;56.958;24.166;2023-02-03T16:53:05;22.70;80.90
54485;DHT22;45006;56.958;24.166;2023-02-03T16:55:32;22.70;81.20
54485;DHT22;45006;56.958;24.166;2023-02-03T16:57:59;22.70;80.70
54485;DHT22;45006;56.958;24.166;2023-02-03T17:00:26;22.70;80.80
54485;DHT22;45006;56.958;24.166;2023-02-03T17:02:53;22.70;80.60
54485;DHT22;45006;56.958;24.166;2023-02-03T17:05:22;22.70;80.50
54485;DHT22;45006;56.958;24.166;2023-02-03T17:07:49;22.70;80.90
54485;DHT22;45006;56.958;24.166;2023-02-03T17:10:16;22.70;80.80
54485;DHT22;45006;56.958;24.166;2023-02-03T17:12:43;22.70;80.80
54485;DHT22;45006;56.958;24.166;2023-02-03T17:15:10;22.70;81.10
54485;DHT22;45006;56.958;24.166;2023-02-03T17:17:37;22.70;81.00
54485;DHT22;45006;56.958;24.166;2023-02-03T17:20:04;22.70;80.80
54485;DHT22;45006;56.958;24.166;2023-02-03T17:22:31;22.70;81.10
54485;DHT22;45006;56.958;24.166;2023-02-03T17:24:59;22.70;80.90
54485;DHT22;45006;56.958;24.166;2023-02-03T17:27:26;22.70;80.80
54485;DHT22;45006;56.958;24.166;2023-02-03T17:29:53;22.70;80.90
54485;DHT22;45006;56.958;24.166;2023-02-03T17:32:20;22.70;80.90
54485;DHT22;45006;56.958;24.166;2023-02-03T17:34:47;22.70;81.00
54485;DHT22;45006;56.958;24.166;2023-02-03T17:37:14;22.70;80.90
54485;DHT22;45006;56.958;24.166;2023-02-03T17:39:41;22.70;81.00
54485;DHT22;45006;56.958;24.166;2023-02-03T17:42:25;22.70;80.90
54485;DHT22;45006;56.958;24.166;2023-02-03T17:45:10;22.70;80.80
54485;DHT22;45006;56.958;24.166;2023-02-03T17:47:54;22.70;80.60
54485;DHT22;45006;56.958;24.166;2023-02-03T17:50:38;22.70;80.50
54485;DHT22;45006;56.958;24.166;2023-02-03T17:53:22;22.70;80.40
54485;DHT22;45006;56.958;24.166;2023-02-03T17:55:49;22.70;80.30
54485;DHT22;45006;56.958;24.166;2023-02-03T17:58:16;22.70;80.60
54485;DHT22;45006;56.958;24.166;2023-02-03T18:00:42;22.70;80.60
54485;DHT22;45006;56.958;24.166;2023-02-03T18:03:09;22.70;80.50
54485;DHT22;45006;56.958;24.166;2023-02-03T18:05:36;22.70;80.40
54485;DHT22;45006;56.958;24.166;2023-02-03T18:08:05;22.70;81.10
54485;DHT22;45006;56.958;24.166;2023-02-03T18:10:42;22.70;80.70
54485;DHT22;45006;56.958;24.166;2023-02-03T18:13:09;22.70;80.40
54485;DHT22;45006;56.958;24.166;2023-02-03T18:15:36;22.70;80.40
54485;DHT22;45006;56.958;24.166;2023-02-03T18:18:04;22.70;80.70
54485;DHT22;45006;56.958;24.166;2023-02-03T18:20:31;22.70;80.70
54485;DHT22;45006;56.958;24.166;2023-02-03T18:22:58;22.70;80.70
54485;DHT22;45006;56.958;24.166;2023-02-03T18:25:25;22.70;80.70
54485;DHT22;45006;56.958;24.166;2023-02-03T18:27:51;22.70;80.90
54485;DHT22;45006;56.958;24.166;2023-02-03T18:30:18;22.70;80.90
54485;DHT22;45006;56.958;24.166;2023-02-03T18:32:51;22.70;80.90
54485;DHT22;45006;56.958;24.166;2023-02-03T18:35:20;22.70;81.00
54485;DHT22;45006;56.958;24.166;2023-02-03T18:37:47;22.70;81.20
54485;DHT22;45006;56.958;24.166;2023-02-03T18:40:14;22.70;81.90
54485;DHT22;45006;56.958;24.166;2023-02-03T18:42:41;22.70;82.70
54485;DHT22;45006;56.958;24.166;2023-02-03T18:52:31;22.70;84.40
54485;DHT22;45006;56.958;24.166;2023-02-03T18:54:58;22.60;83.80
54485;DHT22;45006;56.958;24.166;2023-02-03T18:57:25;22.70;83.40
54485;DHT22;45006;56.958;24.166;2023-02-03T22:33:34;22.40;80.80
54485;DHT22;45006;56.958;24.166;2023-02-03T22:36:03;22.20;47.70
54485;DHT22;45006;56.958;24.166;2023-02-03T22:38:33;22.20;53.60
54485;DHT22;45006;56.958;24.166;2023-02-03T22:41:00;22.30;54.80
54485;DHT22;45006;56.958;24.166;2023-02-03T22:43:27;22.30;55.20
54485;DHT22;45006;56.958;24.166;2023-02-03T22:45:56;22.30;56.00
54485;DHT22;45006;56.958;24.166;2023-02-03T22:48:23;22.30;56.60
54485;DHT22;45006;56.958;24.166;2023-02-03T22:50:51;22.40;57.20
54485;DHT22;45006;56.958;24.166;2023-02-03T22:53:17;22.40;57.90
54485;DHT22;45006;56.958;24.166;2023-02-03T22:55:44;22.40;58.90
54485;DHT22;45006;56.958;24.166;2023-02-03T22:58:11;22.40;58.50
54485;DHT22;45006;56.958;24.166;2023-02-03T23:00:38;22.40;58.90
54485;DHT22;45006;56.958;24.166;2023-02-03T23:03:05;22.40;59.30
54485;DHT22;45006;56.958;24.166;2023-02-03T23:05:32;22.40;59.40
54485;DHT22;45006;56.958;24.166;2023-02-03T23:07:59;22.40;59.70
54485;DHT22;45006;56.958;24.166;2023-02-03T23:10:27;22.50;60.10
54485;DHT22;45006;56.958;24.166;2023-02-03T23:12:58;22.50;60.30
54485;DHT22;45006;56.958;24.166;2023-02-03T23:15:26;22.50;60.50
54485;DHT22;45006;56.958;24.166;2023-02-03T23:17:54;22.50;60.60
54485;DHT22;45006;56.958;24.166;2023-02-03T23:20:21;22.50;60.70
54485;DHT22;45006;56.958;24.166;2023-02-03T23:22:48;22.50;60.80
54485;DHT22;45006;56.958;24.166;2023-02-03T23:25:15;22.50;60.90
54485;DHT22;45006;56.958;24.166;2023-02-03T23:27:42;22.50;61.00
54485;DHT22;45006;56.958;24.166;2023-02-03T23:30:09;22.50;61.00
54485;DHT22;45006;56.958;24.166;2023-02-03T23:32:36;22.50;61.20
54485;DHT22;45006;56.958;24.166;2023-02-03T23:35:03;22.50;61.40
54485;DHT22;45006;56.958;24.166;2023-02-03T23:37:49;22.50;61.50
54485;DHT22;45006;56.958;24.166;2023-02-03T23:40:16;22.50;61.60
54485;DHT22;45006;56.958;24.166;2023-02-03T23:42:43;22.50;61.90
54485;DHT22;45006;56.958;24.166;2023-02-03T23:45:10;22.50;62.00
54485;DHT22;45006;56.958;24.166;2023-02-03T23:47:41;22.50;62.00
54485;DHT22;45006;56.958;24.166;2023-02-03T23:50:12;22.50;62.10
54485;DHT22;45006;56.958;24.166;2023-02-03T23:52:39;22.50;62.10
54485;DHT22;45006;56.958;24.166;2023-02-03T23:55:09;22.50;62.20
54485;DHT22;45006;56.958;24.166;2023-02-03T23:57:36;22.50;62.20
